AirNav   SIMCOM
 
 1282 users online  

UT10 Cedar Valley Airport
Cedar Fort, Utah, USA

GOING TO CEDAR FORT?


FAA INFORMATION EFFECTIVE 09 NOVEMBER 2017

Location

FAA Identifier: UT10
Lat/Long: 40-21-26.0000N / 112-01-04.0000W
40-21.433333N / 112-01.066667W
40.3572222 / -112.0177778
(estimated)
Elevation: 5000 ft. / 1524 m (estimated)
Variation: 15E (1985)
From city: 5 miles NE of CEDAR FORT, UT
Time zone: UTC -7 (UTC -6 during Daylight Saving Time)
Zip code: 84043

Airport Operations

Airport use: Private use. Permission required prior to landing
Activation date: 06/1973
Control tower: no
ARTCC: SALT LAKE CITY CENTER
FSS: CEDAR CITY FLIGHT SERVICE STATION
Attendance: DAYLIGHT HOURS
Wind indicator: yes
Segmented circle: no

Airport Communications

WX AWOS-3 at U42 (16 nm N): 134.425 (801-562-0271)
WX AWOS-3PT at PVU (16 nm SE): 135.175 (801-373-9782)

Nearby radio navigation aids

VOR radial/distance  VOR name  Freq  Var
FFUr308/6.1FAIRFIELD VORTAC116.6016E
PVUr287/16.0PROVO VOR/DME108.4015E
TCHr167/29.6WASATCH VORTAC116.8016E

Airport Services

Runway Information

Runway 17/35

Dimensions: 5100 x 100 ft. / 1554 x 30 m
Surface: gravel
RUNWAY 17  RUNWAY 35
Traffic pattern: rightright

Airport Ownership and Management from official FAA records

Ownership: Privately-owned
Owner: JOHN R ADKINS
4813 BROOKS WAY
SALT LAKE CITY, UT 84117
Phone 801-930-9899
Manager: JOHN R ADKINS
4813 BROOKS WAY
SALT LAKE CITY, UT 84117
Phone 801-930-9899

Airport Operational Statistics

Aircraft based on the field: 5
Single engine airplanes: 4
Multi engine airplanes: 1
    

Additional Remarks

GLIDER ACTIVITY ON & INVOF ARPT.

Instrument Procedures

There are no published instrument procedures at UT10.

Some nearby airports with instrument procedures:

U42 - South Valley Regional Airport (16 nm N)
KPVU - Provo Municipal Airport (16 nm SE)
KTVY - Bolinder Field-Tooele Valley Airport (22 nm NW)
KSLC - Salt Lake City International Airport (26 nm N)
KHCR - Heber City Municipal Airport - Russ McDonald Field (28 nm E)
 
Loc | Ops | Rwys | IFR | FBO | Links
Com | Nav | Svcs | Stats | Notes

TAC Air
 
Area around UT10 (Cedar Valley Airport)
 
Road maps at: MapQuest Bing Google
 
Aerial photo
WARNING: Photo may not be current or correct
Aerial photo of UT10 (Cedar Valley Airport)
Photo by Creighton King
Taken in November 2007
looking northeast

Do you have a better or more recent aerial photo of Cedar Valley Airport that you would like to share? If so, please send us your photo.

 
Sectional chart

 
Airport distance calculator
Flying to Cedar Valley Airport? Find the distance to fly.

From to UT10

Sunrise and sunset
Times for 22-Nov-2017
 Local
(UTC-7)
 Zulu
(UTC)
Morning civil twilight06:5413:54
Sunrise07:2314:23
Sunset17:0500:05
Evening civil twilight17:3500:35

Current date and time
Zulu (UTC)  22-Nov-2017 19:57:28
Local (UTC-7)  22-Nov-2017 12:57:28
 
METAR
KU42 
16nm N 
221955Z AUTO 16008KT 10SM CLR 16/05 A3041 RMK AO1 T01630049
KPVU 
16nm SE 
221856Z 25004KT 10SM FEW075 SCT200 11/03 A3046 RMK AO2 SLP307 T01110033
KTVY 
22nm NW 
221955Z AUTO 34006KT 10SM CLR 14/07 A3041 RMK AO2
KSLC 
26nm N 
221954Z 00000KT 10SM FEW075 FEW120 BKN180 BKN250 18/04 A3039 RMK AO2 SLP267 ACSL DSNT NW T01780044
KHCR 
28nm E 
221930Z AUTO 00000KT 10SM CLR 12/02 A3044 RMK AO2
TAF
KPVU 
16nm SE 
221725Z 2218/2318 VRB04KT P6SM SCT200
NOTAMs
Click for the latest NOTAMs
NOTAMs are issued by the DoD/FAA and will open in a separate window not controlled by AirNav.

 

 
 

Would you like to see your business listed on this page?

 If your business provides an interesting product or service to pilots, flight crews, aircraft, or users of the Cedar Valley Airport, you should consider listing it here.  To start the listing process, click on the button below
 
Add a business
 

Other Pages about Cedar Valley Airport

Update a link
 
Copyright © AirNav, LLC. All rights reserved. Privacy Policy  Contact